Kruunupyy, Finland

3:16 PM EEST on August 20, 2014 (GMT +0300)
Kruunupyy | Change Station
CLOSE
Current Station
Airport
Location: Kruunupyy,
Elevation: 82 ft
Nearby Weather Stations

Elev 82 ft 63.72 °N, 23.14 °E | Updated 26 minutes ago

Clear
Clear
59 °F
Feels Like 59 °F
N
6
Wind Variable Wind from SSE

Today
High -- | Low -- °F
--% Chance of Precip.
Yesterday
High -- | Low -- °F
Precip. -- in
5:35 AM 9:24 PM
Waning Crescent, 22% visible
Pressure 29.47 in
Visibility -9999.0 miles
Clouds
Dew Point 55 °F
Humidity 88%
Rainfall 0.00 in
Snow Depth Not available.
UV Not available.
Pollen Not available.
Air Quality Not available.
Flu Activity Not available.
METAR EFKK 201150Z AUTO 16005KT CAVOK 15/13 Q0998

More Conditions Fewer Conditions

Pressure 29.47 in
Visibility -9999.0 miles
Clouds
Dew Point 55 °F
Humidity 88%
Rainfall 0.00 in
Snow Depth Not available.
UV Not available.
Pollen Not available.
Air Quality Not available.
Flu Activity Not available.
METAR EFKK 201150Z AUTO 16005KT CAVOK 15/13 Q0998

More Conditions Fewer Conditions

10-Day Weather Forecast

Almanac

Astronomy

Aug. 20, 2014 Rise Set
Actual Time 5:35 AM EEST 9:24 PM EEST
Civil Twilight 4:35 AM EEST 10:22 PM EEST
Nautical Twilight 2:56 AM EEST 11:58 PM EEST
Astronomical Twilight Sun does not rise Sun does not rise
Moon 12:17 AM EEST 6:36 PM EEST
Length of Visible Light 17h 46m
Length of Day
15h 48m
Tomorrow will be 6m 25s shorter.
Waning Crescent, 22% of the Moon is Illuminated
Today
Waning Crescent
Aug 25
New
Sep 2
First Quarter
Sep 8
Full
Sep 15
Last Quarter

Yesterday's Extremes

Country Highs Country Lows

Community

WunderPhotos

Upload Photos

1,745,617 photos uploaded!

WunderBlogs® & News

By Dr. Jeff Masters
Director of Meteorology, Weather Underground
By Kari Strenfel
Meteorologist, Weather Underground
By Christopher C. Burt
Weather Historian, Weather Underground
August 20, 2014
August 20, 2014
August 20, 2014

Nearby

Snow Depth

Not available.

Earthquake Activity

City Distance Mag. Time & Date
No recent earthquake activity has been reported nearby.
Minimum magnitude displayed is 2.5.

Coastal Water Temperatures

Place Temperature
No Stations Reporting

Nearby Weather Stations